Aérodrome :
LOGIN :

S'inscrire | Disclaimer

   EN    FR    IT 

 










Légende :    VFR   VFR Marginal   IFR   IFR Intensif   IFR Très Intensif
Visi : 
Plafond : 
>= 8 km
>= 3000ft
5 à 8 km
1000 à 3000 ft
1500m à 5 km
500 à 1000 ft
800 à 1500m
200 à 500 ft
< 800m
< 200 ft
Symboles :   Orages  Brouillard  Fortes neiges  Fortes précipitations  Vent > 20 kt
SIGMETs :   Divers  Orages  Givrage  Turbulence  Onde Orograph.  Cendres Volcan.






- Altitude de l'aérodrome : 85 ft
- Code IATA : SFA


DTTX - Thyna/El Maou - Sfax

DERNIER METAR :
  • 112200Z 24004KT 9999 SCT030 08/04 Q1016

METARs EXPIRÉS :
  • 112100Z 21003KT 190V250 9999 SCT030 08/04 Q1016
  • 112000Z 23003KT 200V260 8000 SCT030 10/04 Q1016

TAF TAF DTTX
Valide du 11 à 18h jusqu'au 12 à 18h UTC


111700Z 1118/1218 30010KT 8000 FEW020
BECMG 1120/1122 24004KT
BECMG 1204/1206 26014KT
BECMG 1208/1210 33017G26KT
BECMG 1215/1217 28010KT



MET'MAP, la Météo Aéronautique d'un coup d'oeil ! - Copyright ORBIFLY Décembre 2007 - Disclaimer

ORBIFLY MET'MAP TEAM :

Programmation & Développement : Alexandra Zaïnal
Sur une idée originale de : Baudouin d'Aumeries
Assistance à la programmation : Marc-Olivier Méhu
Soutien technique & logistique : Manuel Goepfert

Contact : metmap@orbifly.com




SOURCES & CREDITS :

   NOAA